Weather History for KSLB - April, 2014

Change the Weather History Date:

Sunday, April 13, 2014

  Actual Average Record
Temperature  
Mean Temperature 40 °F -  
Max Temperature 50 °F - - ()
Min Temperature 30 °F - - ()
Degree Days  
Heating Degree Days 25    
Moisture  
Dew Point 38 °F    
Average Humidity 98    
Maximum Humidity 100    
Minimum Humidity 81    
Precipitation  
Precipitation 0.30 in - - ()
Sea Level Pressure  
Sea Level Pressure 29.76 in    
Wind  
Wind Speed 23 mph (NNE)    
Max Wind Speed 40 mph    
Max Gust Speed 50 mph    
Visibility 4 miles    
Events Fog , Rain , Snow    
T = Trace of Precipitation, MM = Missing Value Source: NWS Daily Summary

Daily Weather History Graph

Daily Weather History Graph

Search for Another Location

Airport or City:

Trip Planner

Search our weather history database for the weather conditions in past years. The results will help you decide how hot, cold, wet, or windy it might be!

Date:

Astronomy

Apr. 13, 2014 Rise Set
Actual Time 6:42 AM CDT 8:00 PM CDT
Civil Twilight 6:13 AM CDT 8:29 PM CDT
Nautical Twilight 5:38 AM CDT 9:05 PM CDT
Astronomical Twilight 5:01 AM CDT 9:42 PM CDT
Moon 6:38 PM CDT (4/13) 5:44 AM CDT (4/13)
Length of Visible Light 14h 16m
Length of Day
13h 17m
Waxing Gibbous, 97% of the Moon is Illuminated
Apr 13
Waxing Gibbous
Apr 15
Full
Apr 22
Last Quarter
Apr 29
New
May 6
First Quarter

Hourly Weather History & Observations

Time (CDT) Temp. Windchill Dew Point Humidity Pressure Visibility Wind Dir Wind Speed Gust Speed Precip Events Conditions
12:15 AM 50.0 °F - 50.0 °F 100% 29.66 in 10.0 mi NNE 17.3 mph 24.2 mph N/A   Overcast
12:35 AM 50.0 °F - 50.0 °F 100% 29.67 in 8.0 mi NNE 18.4 mph - N/A   Mostly Cloudy
12:55 AM 50.0 °F - 50.0 °F 100% 29.69 in 6.0 mi NNE 16.1 mph 24.2 mph N/A   Overcast
1:15 AM 48.2 °F - 48.2 °F 100% 29.69 in 5.0 mi NNE 19.6 mph - N/A   Overcast
1:35 AM 48.2 °F - 48.2 °F 100% 29.69 in 3.0 mi NNE 19.6 mph - N/A   Overcast
1:55 AM 48.2 °F - 48.2 °F 100% 29.69 in 2.5 mi NNE 19.6 mph - N/A   Overcast
2:15 AM 48.2 °F - 48.2 °F 100% 29.69 in 1.2 mi NNE 20.7 mph - N/A   Overcast
2:35 AM 46.4 °F 39.2 °F 46.4 °F 100% 29.70 in 2.0 mi NNE 18.4 mph 24.2 mph N/A   Overcast
2:55 AM 46.4 °F 39.0 °F 46.4 °F 100% 29.70 in 0.8 mi NNE 19.6 mph 28.8 mph N/A   Overcast
3:15 AM 46.4 °F 39.0 °F 46.4 °F 100% 29.69 in 1.8 mi North 19.6 mph 25.3 mph N/A   Overcast
3:35 AM 46.4 °F 38.5 °F 46.4 °F 100% 29.67 in 1.2 mi North 21.9 mph - N/A   Overcast
3:55 AM 46.4 °F 38.3 °F 46.4 °F 100% 29.67 in 1.0 mi NNE 23.0 mph 28.8 mph N/A   Overcast
4:15 AM 44.6 °F 36.1 °F 44.6 °F 100% 29.68 in 0.2 mi NNE 21.9 mph - N/A Fog Fog
4:35 AM 44.6 °F 36.6 °F 44.6 °F 100% 29.69 in 0.2 mi NNE 19.6 mph 26.5 mph N/A Fog Fog
4:55 AM 44.6 °F 37.8 °F 44.6 °F 100% 29.71 in 0.2 mi NNE 15.0 mph 20.7 mph N/A Fog Fog
5:15 AM 44.6 °F 38.4 °F 44.6 °F 100% 29.73 in 0.2 mi NNE 12.7 mph - N/A Fog Fog
5:35 AM 44.6 °F 38.1 °F 44.6 °F 100% 29.73 in 0.2 mi NE 13.8 mph - N/A Fog Fog
5:55 AM 44.6 °F 37.4 °F 44.6 °F 100% 29.73 in 0.2 mi NNE 16.1 mph - N/A Fog Fog
6:15 AM 44.6 °F 35.9 °F 44.6 °F 100% 29.72 in 0.5 mi North 23.0 mph - N/A Fog Fog
6:35 AM 44.6 °F 35.5 °F 44.6 °F 100% 29.72 in 2.5 mi NNE 25.3 mph 35.7 mph N/A   Overcast
6:55 AM 44.6 °F 35.7 °F 44.6 °F 100% 29.71 in 3.0 mi NNE 24.2 mph 32.2 mph N/A   Overcast
7:15 AM 44.6 °F 35.3 °F 44.6 °F 100% 29.73 in 3.0 mi NNE 26.5 mph 32.2 mph N/A   Overcast
7:35 AM 44.6 °F 34.6 °F 44.6 °F 100% 29.74 in 6.0 mi NNE 31.1 mph 36.8 mph N/A   Overcast
7:55 AM 44.6 °F 34.9 °F 44.6 °F 100% 29.75 in 7.0 mi NNE 28.8 mph 40.3 mph N/A   Overcast
8:15 AM 44.6 °F 35.7 °F 42.8 °F 93% 29.77 in 9.0 mi NNE 24.2 mph 39.1 mph N/A   Overcast
8:35 AM 44.6 °F 35.5 °F 42.8 °F 93% 29.75 in 9.0 mi NNE 25.3 mph 34.5 mph N/A   Overcast
8:55 AM 44.6 °F 35.5 °F 42.8 °F 93% 29.75 in 10.0 mi NNE 25.3 mph 36.8 mph N/A   Overcast
9:15 AM 44.6 °F 35.7 °F 42.8 °F 93% 29.75 in 10.0 mi NNE 24.2 mph 33.4 mph N/A   Overcast
9:35 AM 44.6 °F 34.6 °F 42.8 °F 93% 29.73 in 10.0 mi NNE 31.1 mph 38.0 mph N/A   Overcast
9:55 AM 44.6 °F 35.5 °F 42.8 °F 93% 29.76 in 9.0 mi NNE 25.3 mph 41.4 mph N/A   Overcast
10:15 AM 44.6 °F 34.6 °F 42.8 °F 93% 29.77 in 9.0 mi NNE 31.1 mph 36.8 mph N/A   Overcast
10:35 AM 42.8 °F 33.3 °F 41.0 °F 93% 29.78 in 9.0 mi North 24.2 mph 35.7 mph N/A   Overcast
10:55 AM 41.0 °F 29.7 °F 41.0 °F 100% 29.77 in 6.0 mi NNE 31.1 mph 38.0 mph N/A   Overcast
11:15 AM 39.2 °F 27.6 °F 39.2 °F 100% 29.76 in 3.0 mi NNE 28.8 mph 34.5 mph N/A   Overcast
11:35 AM 37.4 °F 25.9 °F 37.4 °F 100% 29.78 in 3.0 mi North 25.3 mph 34.5 mph N/A   Overcast
11:55 AM 37.4 °F 25.9 °F 37.4 °F 100% 29.79 in 2.5 mi North 25.3 mph 33.4 mph 0.07 in   Overcast
12:15 PM 37.4 °F 26.1 °F 37.4 °F 100% 29.81 in 3.0 mi North 24.2 mph 33.4 mph N/A   Overcast
12:35 PM 35.6 °F 25.2 °F 35.6 °F 100% 29.83 in 3.0 mi North 18.4 mph 28.8 mph N/A   Overcast
12:55 PM 35.6 °F 24.5 °F 35.6 °F 100% 29.82 in 2.5 mi North 20.7 mph 27.6 mph 0.10 in   Mostly Cloudy
1:15 PM 35.6 °F 23.7 °F 35.6 °F 100% 29.80 in 2.5 mi North 24.2 mph - N/A   Scattered Clouds
1:35 PM 35.6 °F 22.5 °F 35.6 °F 100% 29.75 in 3.0 mi North 29.9 mph 36.8 mph N/A   Mostly Cloudy
1:55 PM 33.8 °F 19.6 °F 33.8 °F 100% 29.75 in 5.0 mi North 32.2 mph 41.4 mph 0.06 in Rain Light Rain
2:15 PM 33.8 °F 19.9 °F 33.8 °F 100% 29.74 in 4.0 mi North 31.1 mph 40.3 mph N/A   Mostly Cloudy
2:35 PM 33.8 °F 19.6 °F 33.8 °F 100% 29.73 in 4.0 mi North 32.2 mph 44.9 mph N/A   Overcast
2:55 PM 33.8 °F 19.6 °F 33.8 °F 100% 29.73 in 4.0 mi North 32.2 mph 41.4 mph 0.04 in   Overcast
3:15 PM 33.8 °F 18.3 °F 33.8 °F 100% 29.67 in 4.0 mi North 40.3 mph 49.5 mph N/A   Mostly Cloudy
3:35 PM 33.8 °F 19.6 °F 33.8 °F 100% 29.72 in 6.0 mi North 32.2 mph 41.4 mph N/A   Overcast
3:55 PM 32.0 °F 17.2 °F 32.0 °F 100% 29.72 in 10.0 mi North 32.2 mph 40.3 mph 0.02 in Rain Light Rain
4:15 PM 32.0 °F 17.2 °F 32.0 °F 100% 29.74 in 6.0 mi North 32.2 mph 41.4 mph N/A Rain Rain
4:35 PM 32.0 °F 17.6 °F 32.0 °F 100% 29.76 in 0.8 mi North 29.9 mph 40.3 mph N/A Rain Heavy Rain
4:55 PM 32.0 °F 18.1 °F 32.0 °F 100% 29.77 in 0.5 mi North 27.6 mph 42.6 mph N/A Rain Heavy Rain
5:15 PM 32.0 °F 17.6 °F 32.0 °F 100% 29.76 in 0.5 mi North 29.9 mph 40.3 mph N/A Rain Heavy Rain
5:35 PM 32.0 °F 17.4 °F 32.0 °F 100% 29.76 in 0.5 mi North 31.1 mph 41.4 mph N/A Rain Heavy Rain
5:55 PM 32.0 °F - 32.0 °F 100% 29.77 in 0.2 mi North - - N/A Rain Heavy Rain
6:15 PM 32.0 °F 17.9 °F 32.0 °F 100% 29.78 in 0.2 mi North 28.8 mph 42.6 mph N/A Rain Heavy Rain
6:35 PM 32.0 °F 17.6 °F 32.0 °F 100% 29.78 in 0.2 mi North 29.9 mph 40.3 mph N/A Rain Heavy Rain
6:55 PM 32.0 °F 18.1 °F 32.0 °F 100% 29.78 in 0.2 mi North 27.6 mph 41.4 mph N/A Rain Heavy Rain
7:15 PM 32.0 °F 17.9 °F 32.0 °F 100% 29.77 in 0.5 mi North 28.8 mph 40.3 mph N/A Rain Heavy Rain
7:35 PM 32.0 °F 17.4 °F 32.0 °F 100% 29.77 in 0.8 mi North 31.1 mph 39.1 mph N/A Rain Rain
7:55 PM 32.0 °F 17.9 °F 32.0 °F 100% 29.78 in 1.2 mi North 28.8 mph 40.3 mph 0.01 in Rain Rain
8:15 PM 32.0 °F 18.6 °F 32.0 °F 100% 29.78 in 1.5 mi North 25.3 mph 35.7 mph N/A Rain Rain
8:35 PM 32.0 °F 18.4 °F 30.2 °F 93% 29.77 in 4.0 mi North 26.5 mph 34.5 mph N/A Rain Light Rain
8:55 PM 32.0 °F 18.1 °F 30.2 °F 93% 29.79 in 9.0 mi North 27.6 mph 38.0 mph N/A Rain Light Rain
9:15 PM 33.8 °F 20.8 °F 28.4 °F 81% 29.82 in 10.0 mi North 26.5 mph 35.7 mph N/A   Overcast
9:55 PM 32.0 °F 17.6 °F 28.4 °F 87% 29.85 in 10.0 mi North 29.9 mph 40.3 mph N/A   Overcast
10:15 PM 32.0 °F 17.6 °F 28.4 °F 87% 29.88 in 3.0 mi North 29.9 mph 36.8 mph N/A Rain Light Rain
10:35 PM 30.2 °F 15.2 °F 28.4 °F 93% 29.88 in 3.0 mi North 29.9 mph 39.1 mph N/A Rain Light Freezing Rain
10:55 PM 30.2 °F 15.2 °F 28.4 °F 93% 29.90 in 1.8 mi North 29.9 mph 40.3 mph N/A   Overcast
11:15 PM 30.2 °F 14.7 °F 28.4 °F 93% 29.91 in 1.5 mi North 32.2 mph 39.1 mph N/A   Overcast
11:35 PM 30.2 °F 15.4 °F 26.6 °F 86% 29.91 in 4.0 mi North 28.8 mph 35.7 mph N/A Snow Light Snow
11:55 PM 30.2 °F 14.5 °F 26.6 °F 86% 29.91 in 10.0 mi North 33.4 mph 40.3 mph N/A   Overcast